x

West Dixon Entrance (46205) Wave Buoy

5:00pm - Wed 22nd Oct 2014 All times are PDT. -7 hours from GMT.

  • Sig Wave height 13.4ft
  • Peak Period 12s
  • Wind
    20mph, 27mph gusts
  • Sea Temp 54°f
  • Air Temp 51°f
  • Sea Pressure 990.6mb
  • West Dixon Entrance
  • West Dixon Entrance

More Historic Weather Station data

Upgrade to MSW Pro to gain access to the past 30 days of data for over 8000 Wavebouys and Weather Stations around the globe.

Join Pro

Comparision Forecast

View Surf forecast
   
Wed 10/22 5:00pm 13.5ft 12s 20 27 mph 990.6mb 54f 51f
4:00pm 12ft 12s 11 18 mph 991.5mb 54f 52f
3:00pm 11.5ft 12s 11 16 mph 991.9mb 54f 53f
2:00pm 12ft 11s 11 16 mph 992.6mb 54f 52f
1:00pm 13ft 13s 4 9 mph 993.2mb 54f 53f
12:00pm 14ft 11s 4 9 mph 993.2mb 54f 53f
11:00am 15ft 11s 9 11 mph 993.2mb 54f 52f
10:00am 14ft 13s 13 16 mph 992.8mb 54f 52f
9:00am 16.5ft 12s 18 20 mph 992.2mb 54f 52f
8:00am 15.5ft 13s 20 25 mph 991.5mb 54f 51f
7:00am 16.5ft 13s 16 20 mph 991mb 54f 51f
6:00am 18.5ft 13s 22 27 mph 990.2mb 54f 51f
5:00am 18ft 14s 27 34 mph 988.9mb 54f 52f
4:00am 19.5ft 12s 29 36 mph 987.6mb 54f 52f
3:00am 21.5ft 11s 31 40 mph 986.2mb 54f 52f
2:00am 20.5ft 13s 36 45 mph 984.5mb 55f 52f
1:00am 21.5ft 12s 36 47 mph 983.2mb 55f 52f
12:00am 19.5ft 13s 40 51 mph 981.8mb 55f 52f
Tue 10/21 11:00pm 18.5ft 14s 36 45 mph 981.5mb 54f 51f
10:00pm 21.5ft 13s 38 47 mph 981.3mb 54f 51f
9:00pm 23.5ft 15s 40 51 mph 981.1mb 54f 51f
8:00pm 24ft 12s 40 51 mph 981.2mb 54f 52f
7:00pm 24ft 14s 38 49 mph 981.3mb 54f 53f
6:00pm 22ft 11s 38 49 mph 980.5mb 54f 54f
5:00pm 19.5ft 10s 34 43 mph 980.8mb 54f 53f
3:00pm 17ft 10s 36 49 mph 979.4mb 55f 54f
2:00pm 16.5ft 9s 38 45 mph 978.5mb 55f 54f
12:00pm 14ft 9s 36 49 mph 978.9mb 55f 54f
11:00am 14ft 9s 38 47 mph 979.6mb 55f 54f
10:00am 13ft 8s 31 38 mph 980.7mb 55f 54f
9:00am 11.5ft 8s 31 40 mph 981.3mb 55f 52f
8:00am 12ft 9s 29 36 mph 981.8mb 55f 53f
7:00am 13.5ft 8s 31 40 mph 982.8mb 55f 53f
6:00am 13ft 8s 31 38 mph 983.3mb 55f 52f
5:00am 12ft 7s 34 43 mph 984.2mb 55f 51f
4:00am 12ft 8s 29 36 mph 985mb 55f 52f
3:00am 12.5ft 7s 34 43 mph 985.4mb 55f 53f
2:00am 12ft 7s 34 43 mph 987.2mb 55f 52f
1:00am 11ft 9s 29 38 mph 988.8mb 55f 53f
12:00am 10ft 10s 29 38 mph 989.9mb 55f 53f
Mon 10/20 11:00pm 10ft 10s 29 36 mph 991.1mb 55f 53f
10:00pm 9ft 9s 27 34 mph 992mb 55f 54f
9:00pm 9.5ft 10s 27 34 mph 992.8mb 55f 53f
8:00pm 10ft 10s 13 22 mph 994.3mb 55f 51f
7:00pm 10ft 11s 16 20 mph 994.5mb 55f 53f
6:00pm 11ft 10s 18 22 mph 994.9mb 55f 53f
5:00pm 11ft 10s 13 16 mph 995.3mb 55f 53f
4:00pm 11ft 12s 13 16 mph 995.4mb 55f 53f
3:00pm 12ft 10s 13 16 mph 995.4mb 55f 53f
2:00pm 12ft 12s 11 16 mph 995.5mb 55f 53f
1:00pm 11ft 10s 13 16 mph 995.4mb 55f 53f
12:00pm 10.5ft 10s 13 18 mph 995.3mb 55f 53f
11:00am 9ft 12s 16 20 mph 994.9mb 55f 53f
10:00am 10ft 10s 16 20 mph 994.8mb 55f 53f
9:00am 9ft 11s 13 18 mph 994mb 56f 53f
8:00am 9ft 11s 13 18 mph 993.3mb 56f 52f
7:00am 9ft 10s 20 22 mph 992.6mb 56f 51f
6:00am 9.5ft 11s 16 18 mph 991.7mb 55f 53f
5:00am 9ft 10s 20 25 mph 990.7mb 55f 53f
4:00am 10ft 10s 18 22 mph 990.3mb 55f 53f
3:00am 10.5ft 10s 16 20 mph 989.8mb 55f 54f
2:00am 10ft 11s 16 18 mph 989.4mb 55f 54f
1:00am 11ft 11s 11 13 mph 989mb 55f 53f
12:00am 11ft 13s 11 13 mph 988.6mb 55f 53f
Sun 10/19 11:00pm 11.5ft 12s 13 20 mph 988.4mb 55f 55f
10:00pm 11ft 14s 20 25 mph 988.3mb 55f 55f
7:00pm 11.5ft 13s 16 20 mph 988mb 56f 55f
6:00pm 12ft 10s 18 20 mph 987.7mb 56f 55f
5:00pm 11ft 10s 18 22 mph 987.4mb 55f 55f
4:00pm 12ft 10s 18 20 mph 986.5mb 55f 54f
3:00pm 12ft 11s 20 27 mph 985.6mb 55f 52f
2:00pm 12ft 11s 27 31 mph 984.3mb 55f 51f
1:00pm 12ft 11s 18 22 mph 983.2mb 55f 52f
12:00pm 11ft 11s 11 16 mph 982.2mb 55f 53f
11:00am 12ft 11s 2 4 mph 980.7mb 55f 52f
10:00am 11.5ft 11s 9 13 mph 979.4mb 55f 52f
9:00am 11.5ft 10s 22 29 mph 979.2mb 55f 53f
8:00am 12ft 10s 25 29 mph 980.3mb 55f 53f
7:00am 12ft 10s 22 29 mph 981.8mb 55f 54f
6:00am 12.5ft 10s 18 22 mph 983.6mb 55f 55f
5:00am 12ft 10s 11 16 mph 985.8mb 55f 56f
4:00am 12.5ft 10s 18 22 mph 987.1mb 55f 56f
3:00am 11.5ft 10s 20 25 mph 988.3mb 55f 56f
2:00am 12ft 10s 18 22 mph 988.9mb 55f 56f